sensor_id;sensor_type;location;lat;lon;timestamp;temperature;humidity
9482;DHT22;4779;48.062;11.672;2023-04-03T00:00:10;3.90;99.90
9482;DHT22;4779;48.062;11.672;2023-04-03T00:02:37;3.90;99.90
9482;DHT22;4779;48.062;11.672;2023-04-03T00:05:04;3.90;99.90
9482;DHT22;4779;48.062;11.672;2023-04-03T00:07:31;4.00;99.90
9482;DHT22;4779;48.062;11.672;2023-04-03T00:09:58;4.00;99.90
9482;DHT22;4779;48.062;11.672;2023-04-03T00:12:26;4.00;99.90
9482;DHT22;4779;48.062;11.672;2023-04-03T00:14:53;4.10;99.90
9482;DHT22;4779;48.062;11.672;2023-04-03T00:17:20;4.10;99.90
9482;DHT22;4779;48.062;11.672;2023-04-03T00:19:47;4.10;99.90
9482;DHT22;4779;48.062;11.672;2023-04-03T00:22:14;4.10;99.90
9482;DHT22;4779;48.062;11.672;2023-04-03T00:24:40;4.00;99.90
9482;DHT22;4779;48.062;11.672;2023-04-03T00:27:07;4.00;99.90
9482;DHT22;4779;48.062;11.672;2023-04-03T00:29:35;4.00;99.90
9482;DHT22;4779;48.062;11.672;2023-04-03T00:32:02;4.00;99.90
9482;DHT22;4779;48.062;11.672;2023-04-03T00:34:29;4.00;99.90
9482;DHT22;4779;48.062;11.672;2023-04-03T00:36:57;4.10;99.90
9482;DHT22;4779;48.062;11.672;2023-04-03T00:39:24;4.00;99.90
9482;DHT22;4779;48.062;11.672;2023-04-03T00:41:51;4.00;99.90
9482;DHT22;4779;48.062;11.672;2023-04-03T00:44:20;4.10;99.90
9482;DHT22;4779;48.062;11.672;2023-04-03T00:46:48;4.00;99.90
9482;DHT22;4779;48.062;11.672;2023-04-03T00:49:15;4.00;99.90
9482;DHT22;4779;48.062;11.672;2023-04-03T00:51:42;3.90;99.90
9482;DHT22;4779;48.062;11.672;2023-04-03T00:54:09;3.90;99.90
9482;DHT22;4779;48.062;11.672;2023-04-03T00:56:37;3.70;99.90
9482;DHT22;4779;48.062;11.672;2023-04-03T00:59:07;3.70;99.90
9482;DHT22;4779;48.062;11.672;2023-04-03T01:01:35;3.70;99.90
9482;DHT22;4779;48.062;11.672;2023-04-03T01:04:05;3.70;99.90
9482;DHT22;4779;48.062;11.672;2023-04-03T01:06:35;3.70;99.90
9482;DHT22;4779;48.062;11.672;2023-04-03T01:09:04;3.70;99.90
9482;DHT22;4779;48.062;11.672;2023-04-03T01:11:31;3.70;99.90
9482;DHT22;4779;48.062;11.672;2023-04-03T01:13:58;3.80;99.90
9482;DHT22;4779;48.062;11.672;2023-04-03T01:16:27;3.70;99.90
9482;DHT22;4779;48.062;11.672;2023-04-03T01:18:56;3.60;99.90
9482;DHT22;4779;48.062;11.672;2023-04-03T01:21:53;3.70;99.90
9482;DHT22;4779;48.062;11.672;2023-04-03T01:24:34;3.70;99.90
9482;DHT22;4779;48.062;11.672;2023-04-03T01:27:03;3.80;99.90
9482;DHT22;4779;48.062;11.672;2023-04-03T01:29:31;3.80;99.90
9482;DHT22;4779;48.062;11.672;2023-04-03T02:03:03;4.00;99.90
9482;DHT22;4779;48.062;11.672;2023-04-03T02:05:31;3.90;99.90
9482;DHT22;4779;48.062;11.672;2023-04-03T02:07:57;3.80;99.90
9482;DHT22;4779;48.062;11.672;2023-04-03T02:10:25;3.70;99.90
9482;DHT22;4779;48.062;11.672;2023-04-03T02:12:52;3.70;99.90
9482;DHT22;4779;48.062;11.672;2023-04-03T02:15:21;3.70;99.90
9482;DHT22;4779;48.062;11.672;2023-04-03T02:17:48;3.70;99.90
9482;DHT22;4779;48.062;11.672;2023-04-03T02:20:16;3.70;99.90
9482;DHT22;4779;48.062;11.672;2023-04-03T02:22:43;3.70;99.90
9482;DHT22;4779;48.062;11.672;2023-04-03T02:25:10;3.80;99.90
9482;DHT22;4779;48.062;11.672;2023-04-03T02:27:38;3.80;99.90
9482;DHT22;4779;48.062;11.672;2023-04-03T02:30:06;3.80;99.90
9482;DHT22;4779;48.062;11.672;2023-04-03T02:32:35;3.80;99.90
9482;DHT22;4779;48.062;11.672;2023-04-03T02:35:01;3.80;99.90
9482;DHT22;4779;48.062;11.672;2023-04-03T02:37:30;3.80;99.90
9482;DHT22;4779;48.062;11.672;2023-04-03T02:39:57;3.80;99.90
9482;DHT22;4779;48.062;11.672;2023-04-03T02:42:23;3.80;99.90
9482;DHT22;4779;48.062;11.672;2023-04-03T02:44:50;3.80;99.90
9482;DHT22;4779;48.062;11.672;2023-04-03T02:47:17;3.90;99.90
9482;DHT22;4779;48.062;11.672;2023-04-03T02:49:44;3.90;99.90
9482;DHT22;4779;48.062;11.672;2023-04-03T02:52:11;3.90;99.90
9482;DHT22;4779;48.062;11.672;2023-04-03T02:54:39;3.90;99.90
9482;DHT22;4779;48.062;11.672;2023-04-03T02:57:06;3.90;99.90
9482;DHT22;4779;48.062;11.672;2023-04-03T02:59:34;3.90;99.90
9482;DHT22;4779;48.062;11.672;2023-04-03T03:02:01;3.80;99.90
9482;DHT22;4779;48.062;11.672;2023-04-03T03:04:28;3.80;99.90
9482;DHT22;4779;48.062;11.672;2023-04-03T03:06:55;3.80;99.90
9482;DHT22;4779;48.062;11.672;2023-04-03T03:09:22;3.70;99.90
9482;DHT22;4779;48.062;11.672;2023-04-03T03:11:50;3.80;99.90
9482;DHT22;4779;48.062;11.672;2023-04-03T03:14:17;3.80;99.90
9482;DHT22;4779;48.062;11.672;2023-04-03T03:16:44;3.80;99.90
9482;DHT22;4779;48.062;11.672;2023-04-03T03:19:11;3.80;99.90
9482;DHT22;4779;48.062;11.672;2023-04-03T03:21:37;3.80;99.90
9482;DHT22;4779;48.062;11.672;2023-04-03T03:24:05;3.80;99.90
9482;DHT22;4779;48.062;11.672;2023-04-03T03:26:32;3.80;99.90
9482;DHT22;4779;48.062;11.672;2023-04-03T03:29:00;3.80;99.90
9482;DHT22;4779;48.062;11.672;2023-04-03T03:31:27;3.90;99.90
9482;DHT22;4779;48.062;11.672;2023-04-03T03:33:54;3.90;99.90
9482;DHT22;4779;48.062;11.672;2023-04-03T03:36:21;3.90;99.90
9482;DHT22;4779;48.062;11.672;2023-04-03T03:38:48;3.90;99.90
9482;DHT22;4779;48.062;11.672;2023-04-03T03:41:14;3.90;99.90
9482;DHT22;4779;48.062;11.672;2023-04-03T03:43:41;3.80;99.90
9482;DHT22;4779;48.062;11.672;2023-04-03T03:46:10;3.80;99.90
9482;DHT22;4779;48.062;11.672;2023-04-03T03:48:36;3.80;99.90
9482;DHT22;4779;48.062;11.672;2023-04-03T03:51:03;3.80;99.90
9482;DHT22;4779;48.062;11.672;2023-04-03T03:53:30;3.80;99.90
9482;DHT22;4779;48.062;11.672;2023-04-03T03:55:57;3.80;99.90
9482;DHT22;4779;48.062;11.672;2023-04-03T03:58:24;3.90;99.90
9482;DHT22;4779;48.062;11.672;2023-04-03T04:00:51;3.80;99.90
9482;DHT22;4779;48.062;11.672;2023-04-03T04:03:19;3.80;99.90
9482;DHT22;4779;48.062;11.672;2023-04-03T04:05:46;3.80;99.90
9482;DHT22;4779;48.062;11.672;2023-04-03T04:08:13;3.80;99.90
9482;DHT22;4779;48.062;11.672;2023-04-03T04:10:40;3.80;99.90
9482;DHT22;4779;48.062;11.672;2023-04-03T04:13:08;3.70;99.90
9482;DHT22;4779;48.062;11.672;2023-04-03T04:15:35;3.80;99.90
9482;DHT22;4779;48.062;11.672;2023-04-03T04:18:02;3.80;99.90
9482;DHT22;4779;48.062;11.672;2023-04-03T04:20:30;3.80;99.90
9482;DHT22;4779;48.062;11.672;2023-04-03T04:22:57;3.80;99.90
9482;DHT22;4779;48.062;11.672;2023-04-03T04:25:24;3.70;99.90
9482;DHT22;4779;48.062;11.672;2023-04-03T04:27:51;3.70;99.90
9482;DHT22;4779;48.062;11.672;2023-04-03T04:30:18;3.80;99.90
9482;DHT22;4779;48.062;11.672;2023-04-03T04:32:44;3.80;99.90
9482;DHT22;4779;48.062;11.672;2023-04-03T04:35:12;3.80;99.90
9482;DHT22;4779;48.062;11.672;2023-04-03T04:37:40;3.70;99.90
9482;DHT22;4779;48.062;11.672;2023-04-03T04:40:08;3.70;99.90
9482;DHT22;4779;48.062;11.672;2023-04-03T04:42:35;3.70;99.90
9482;DHT22;4779;48.062;11.672;2023-04-03T04:45:02;3.80;99.90
9482;DHT22;4779;48.062;11.672;2023-04-03T04:47:29;3.80;99.90
9482;DHT22;4779;48.062;11.672;2023-04-03T04:49:56;3.80;99.90
9482;DHT22;4779;48.062;11.672;2023-04-03T04:52:23;3.80;99.90
9482;DHT22;4779;48.062;11.672;2023-04-03T04:54:51;3.70;99.90
9482;DHT22;4779;48.062;11.672;2023-04-03T04:57:18;3.70;99.90
9482;DHT22;4779;48.062;11.672;2023-04-03T04:59:45;3.80;99.90
9482;DHT22;4779;48.062;11.672;2023-04-03T05:02:12;3.80;99.90
9482;DHT22;4779;48.062;11.672;2023-04-03T05:04:39;3.80;99.90
9482;DHT22;4779;48.062;11.672;2023-04-03T05:07:06;3.80;99.90
9482;DHT22;4779;48.062;11.672;2023-04-03T05:09:32;3.80;99.90
9482;DHT22;4779;48.062;11.672;2023-04-03T05:12:01;3.80;99.90
9482;DHT22;4779;48.062;11.672;2023-04-03T05:14:28;3.70;99.90
9482;DHT22;4779;48.062;11.672;2023-04-03T05:16:55;3.70;99.90
9482;DHT22;4779;48.062;11.672;2023-04-03T05:19:23;3.80;99.90
9482;DHT22;4779;48.062;11.672;2023-04-03T05:21:50;3.80;99.90
9482;DHT22;4779;48.062;11.672;2023-04-03T05:24:17;3.80;99.90
9482;DHT22;4779;48.062;11.672;2023-04-03T05:26:44;3.70;99.90
9482;DHT22;4779;48.062;11.672;2023-04-03T05:29:12;3.70;99.90
9482;DHT22;4779;48.062;11.672;2023-04-03T05:31:39;3.70;99.90
9482;DHT22;4779;48.062;11.672;2023-04-03T05:34:06;3.60;99.90
9482;DHT22;4779;48.062;11.672;2023-04-03T05:36:32;3.50;99.90
9482;DHT22;4779;48.062;11.672;2023-04-03T05:38:59;3.50;99.90
9482;DHT22;4779;48.062;11.672;2023-04-03T05:41:26;3.60;99.90
9482;DHT22;4779;48.062;11.672;2023-04-03T05:43:53;3.60;99.90
9482;DHT22;4779;48.062;11.672;2023-04-03T05:46:22;3.60;99.90
9482;DHT22;4779;48.062;11.672;2023-04-03T05:48:49;3.60;99.90
9482;DHT22;4779;48.062;11.672;2023-04-03T05:51:19;3.60;99.90
9482;DHT22;4779;48.062;11.672;2023-04-03T05:53:47;3.70;99.90
9482;DHT22;4779;48.062;11.672;2023-04-03T05:56:14;3.70;99.90
9482;DHT22;4779;48.062;11.672;2023-04-03T05:58:41;3.60;99.90
9482;DHT22;4779;48.062;11.672;2023-04-03T06:01:08;3.60;99.90
9482;DHT22;4779;48.062;11.672;2023-04-03T06:03:36;3.70;99.90
9482;DHT22;4779;48.062;11.672;2023-04-03T06:06:05;3.70;99.90
9482;DHT22;4779;48.062;11.672;2023-04-03T06:08:33;3.70;99.90
9482;DHT22;4779;48.062;11.672;2023-04-03T06:11:00;3.70;99.90
9482;DHT22;4779;48.062;11.672;2023-04-03T06:13:28;3.60;99.90
9482;DHT22;4779;48.062;11.672;2023-04-03T06:15:55;3.60;99.90
9482;DHT22;4779;48.062;11.672;2023-04-03T06:18:22;3.60;99.90
9482;DHT22;4779;48.062;11.672;2023-04-03T06:20:51;3.70;99.90
9482;DHT22;4779;48.062;11.672;2023-04-03T06:23:17;3.80;99.90
9482;DHT22;4779;48.062;11.672;2023-04-03T06:25:44;3.70;99.90
9482;DHT22;4779;48.062;11.672;2023-04-03T06:28:11;3.70;99.90
9482;DHT22;4779;48.062;11.672;2023-04-03T06:30:38;3.70;99.90
9482;DHT22;4779;48.062;11.672;2023-04-03T06:33:05;3.70;99.90
9482;DHT22;4779;48.062;11.672;2023-04-03T06:35:32;3.80;99.90
9482;DHT22;4779;48.062;11.672;2023-04-03T06:38:01;3.80;99.90
9482;DHT22;4779;48.062;11.672;2023-04-03T06:40:30;4.00;99.90
9482;DHT22;4779;48.062;11.672;2023-04-03T06:42:57;4.00;99.90
9482;DHT22;4779;48.062;11.672;2023-04-03T06:45:24;4.10;99.90
9482;DHT22;4779;48.062;11.672;2023-04-03T06:47:51;4.10;99.90
9482;DHT22;4779;48.062;11.672;2023-04-03T06:50:18;4.10;99.90
9482;DHT22;4779;48.062;11.672;2023-04-03T06:52:45;4.10;99.90
9482;DHT22;4779;48.062;11.672;2023-04-03T06:55:13;4.20;99.90
9482;DHT22;4779;48.062;11.672;2023-04-03T06:57:40;4.20;99.90
9482;DHT22;4779;48.062;11.672;2023-04-03T07:00:08;4.00;99.90
9482;DHT22;4779;48.062;11.672;2023-04-03T07:02:36;4.00;99.90
9482;DHT22;4779;48.062;11.672;2023-04-03T07:05:03;4.00;99.90
9482;DHT22;4779;48.062;11.672;2023-04-03T07:07:31;4.10;99.90
9482;DHT22;4779;48.062;11.672;2023-04-03T07:09:59;3.90;99.90
9482;DHT22;4779;48.062;11.672;2023-04-03T07:12:27;3.90;99.90
9482;DHT22;4779;48.062;11.672;2023-04-03T07:14:54;3.80;99.90
9482;DHT22;4779;48.062;11.672;2023-04-03T07:17:21;3.90;99.90
9482;DHT22;4779;48.062;11.672;2023-04-03T07:19:48;4.00;99.90
9482;DHT22;4779;48.062;11.672;2023-04-03T07:22:16;4.10;99.90
9482;DHT22;4779;48.062;11.672;2023-04-03T07:24:43;4.20;99.90
9482;DHT22;4779;48.062;11.672;2023-04-03T07:27:10;4.10;99.90
9482;DHT22;4779;48.062;11.672;2023-04-03T07:29:39;4.20;99.90
9482;DHT22;4779;48.062;11.672;2023-04-03T07:32:06;4.20;99.90
9482;DHT22;4779;48.062;11.672;2023-04-03T07:34:33;4.10;99.90
9482;DHT22;4779;48.062;11.672;2023-04-03T07:37:00;4.20;99.90
9482;DHT22;4779;48.062;11.672;2023-04-03T07:39:28;4.20;99.90
9482;DHT22;4779;48.062;11.672;2023-04-03T07:41:55;4.20;99.90
9482;DHT22;4779;48.062;11.672;2023-04-03T07:44:22;4.30;99.90
9482;DHT22;4779;48.062;11.672;2023-04-03T07:46:50;4.40;99.90
9482;DHT22;4779;48.062;11.672;2023-04-03T07:49:17;4.40;99.90
9482;DHT22;4779;48.062;11.672;2023-04-03T07:51:44;4.40;99.90
9482;DHT22;4779;48.062;11.672;2023-04-03T07:54:16;4.30;99.90
9482;DHT22;4779;48.062;11.672;2023-04-03T07:56:50;4.20;99.90
9482;DHT22;4779;48.062;11.672;2023-04-03T07:59:17;4.20;99.90
9482;DHT22;4779;48.062;11.672;2023-04-03T08:01:43;4.10;99.90
9482;DHT22;4779;48.062;11.672;2023-04-03T08:04:12;4.10;99.90
9482;DHT22;4779;48.062;11.672;2023-04-03T08:06:39;4.20;99.90
9482;DHT22;4779;48.062;11.672;2023-04-03T08:09:06;4.30;99.90
9482;DHT22;4779;48.062;11.672;2023-04-03T08:11:33;4.20;99.90
9482;DHT22;4779;48.062;11.672;2023-04-03T08:14:01;4.20;99.90
9482;DHT22;4779;48.062;11.672;2023-04-03T08:16:28;4.30;99.90
9482;DHT22;4779;48.062;11.672;2023-04-03T08:18:55;4.40;99.90
9482;DHT22;4779;48.062;11.672;2023-04-03T08:21:24;4.40;99.90
9482;DHT22;4779;48.062;11.672;2023-04-03T08:23:50;4.40;99.90
9482;DHT22;4779;48.062;11.672;2023-04-03T08:26:20;4.40;99.90
9482;DHT22;4779;48.062;11.672;2023-04-03T08:28:47;4.50;99.90
9482;DHT22;4779;48.062;11.672;2023-04-03T08:31:16;4.70;99.90
9482;DHT22;4779;48.062;11.672;2023-04-03T08:33:44;4.60;99.90
9482;DHT22;4779;48.062;11.672;2023-04-03T08:36:17;4.70;99.90
9482;DHT22;4779;48.062;11.672;2023-04-03T08:38:47;4.70;99.90
9482;DHT22;4779;48.062;11.672;2023-04-03T08:41:16;4.70;99.90
9482;DHT22;4779;48.062;11.672;2023-04-03T08:43:56;4.70;99.90
9482;DHT22;4779;48.062;11.672;2023-04-03T08:46:31;4.60;99.90
9482;DHT22;4779;48.062;11.672;2023-04-03T08:49:01;4.60;99.90
9482;DHT22;4779;48.062;11.672;2023-04-03T08:51:29;4.70;99.90
9482;DHT22;4779;48.062;11.672;2023-04-03T08:54:00;4.80;99.90
9482;DHT22;4779;48.062;11.672;2023-04-03T08:56:29;4.90;99.90
9482;DHT22;4779;48.062;11.672;2023-04-03T08:58:59;4.90;99.90
9482;DHT22;4779;48.062;11.672;2023-04-03T09:01:33;4.90;99.90
9482;DHT22;4779;48.062;11.672;2023-04-03T09:04:01;4.90;99.90
9482;DHT22;4779;48.062;11.672;2023-04-03T09:06:31;5.10;99.90
9482;DHT22;4779;48.062;11.672;2023-04-03T09:09:11;5.20;99.90
9482;DHT22;4779;48.062;11.672;2023-04-03T09:11:47;5.20;99.90
9482;DHT22;4779;48.062;11.672;2023-04-03T09:14:23;5.30;99.90
9482;DHT22;4779;48.062;11.672;2023-04-03T09:16:55;5.30;99.90
9482;DHT22;4779;48.062;11.672;2023-04-03T09:19:31;5.30;99.90
9482;DHT22;4779;48.062;11.672;2023-04-03T09:22:11;5.40;99.90
9482;DHT22;4779;48.062;11.672;2023-04-03T09:24:43;5.40;99.90
9482;DHT22;4779;48.062;11.672;2023-04-03T09:27:12;5.40;99.90
9482;DHT22;4779;48.062;11.672;2023-04-03T09:29:40;5.50;99.90
9482;DHT22;4779;48.062;11.672;2023-04-03T09:32:19;5.60;99.90
9482;DHT22;4779;48.062;11.672;2023-04-03T09:34:47;5.60;99.90
9482;DHT22;4779;48.062;11.672;2023-04-03T09:37:35;5.60;99.90
9482;DHT22;4779;48.062;11.672;2023-04-03T09:40:05;5.90;99.90
9482;DHT22;4779;48.062;11.672;2023-04-03T09:42:33;6.00;99.90
9482;DHT22;4779;48.062;11.672;2023-04-03T09:45:22;6.00;99.90
9482;DHT22;4779;48.062;11.672;2023-04-03T09:48:04;5.90;99.90
9482;DHT22;4779;48.062;11.672;2023-04-03T09:50:33;5.80;99.90
9482;DHT22;4779;48.062;11.672;2023-04-03T09:53:05;5.60;99.90
9482;DHT22;4779;48.062;11.672;2023-04-03T09:55:42;5.40;99.90
9482;DHT22;4779;48.062;11.672;2023-04-03T09:58:24;5.20;99.90
9482;DHT22;4779;48.062;11.672;2023-04-03T10:00:54;5.00;99.90
9482;DHT22;4779;48.062;11.672;2023-04-03T10:03:25;5.00;99.90
9482;DHT22;4779;48.062;11.672;2023-04-03T10:05:53;4.90;99.90
9482;DHT22;4779;48.062;11.672;2023-04-03T10:08:23;4.90;99.90
9482;DHT22;4779;48.062;11.672;2023-04-03T10:11:16;4.90;99.90
9482;DHT22;4779;48.062;11.672;2023-04-03T10:13:52;5.00;99.90
9482;DHT22;4779;48.062;11.672;2023-04-03T10:16:23;5.00;99.90
9482;DHT22;4779;48.062;11.672;2023-04-03T10:21:55;5.30;99.90
9482;DHT22;4779;48.062;11.672;2023-04-03T10:24:29;5.50;99.90
9482;DHT22;4779;48.062;11.672;2023-04-03T10:27:06;5.70;99.90
9482;DHT22;4779;48.062;11.672;2023-04-03T10:29:40;5.80;99.90
9482;DHT22;4779;48.062;11.672;2023-04-03T10:32:27;5.90;99.90
9482;DHT22;4779;48.062;11.672;2023-04-03T10:35:02;6.20;99.90
9482;DHT22;4779;48.062;11.672;2023-04-03T10:37:43;6.60;99.90
9482;DHT22;4779;48.062;11.672;2023-04-03T10:40:24;6.70;99.90
9482;DHT22;4779;48.062;11.672;2023-04-03T10:42:59;6.70;99.90
9482;DHT22;4779;48.062;11.672;2023-04-03T10:45:34;6.50;99.90
9482;DHT22;4779;48.062;11.672;2023-04-03T10:48:13;6.40;99.90
9482;DHT22;4779;48.062;11.672;2023-04-03T10:50:46;6.20;99.90
9482;DHT22;4779;48.062;11.672;2023-04-03T10:53:20;6.10;99.90
9482;DHT22;4779;48.062;11.672;2023-04-03T10:55:57;5.90;99.90
9482;DHT22;4779;48.062;11.672;2023-04-03T10:58:32;5.60;99.90
9482;DHT22;4779;48.062;11.672;2023-04-03T11:01:02;5.50;99.90
9482;DHT22;4779;48.062;11.672;2023-04-03T11:03:35;5.20;99.90
9482;DHT22;4779;48.062;11.672;2023-04-03T11:06:07;4.90;99.90
9482;DHT22;4779;48.062;11.672;2023-04-03T11:08:38;4.70;99.90
9482;DHT22;4779;48.062;11.672;2023-04-03T11:11:13;4.60;99.90
9482;DHT22;4779;48.062;11.672;2023-04-03T11:13:45;4.50;99.90
9482;DHT22;4779;48.062;11.672;2023-04-03T11:16:19;4.50;99.90
9482;DHT22;4779;48.062;11.672;2023-04-03T11:18:49;4.50;99.90
9482;DHT22;4779;48.062;11.672;2023-04-03T11:21:21;4.50;99.90
9482;DHT22;4779;48.062;11.672;2023-04-03T11:23:51;4.50;99.90
9482;DHT22;4779;48.062;11.672;2023-04-03T11:26:20;4.50;99.90
9482;DHT22;4779;48.062;11.672;2023-04-03T11:28:56;4.40;99.90
9482;DHT22;4779;48.062;11.672;2023-04-03T11:31:41;4.50;99.90
9482;DHT22;4779;48.062;11.672;2023-04-03T11:34:22;4.60;99.90
9482;DHT22;4779;48.062;11.672;2023-04-03T11:36:54;4.50;99.90
9482;DHT22;4779;48.062;11.672;2023-04-03T11:39:25;4.50;99.90
9482;DHT22;4779;48.062;11.672;2023-04-03T11:41:53;4.50;99.90
9482;DHT22;4779;48.062;11.672;2023-04-03T11:44:34;4.50;99.90
9482;DHT22;4779;48.062;11.672;2023-04-03T11:47:03;4.40;99.90
9482;DHT22;4779;48.062;11.672;2023-04-03T11:49:53;4.30;99.90
9482;DHT22;4779;48.062;11.672;2023-04-03T11:52:56;4.40;99.90
9482;DHT22;4779;48.062;11.672;2023-04-03T11:55:43;4.40;99.90
9482;DHT22;4779;48.062;11.672;2023-04-03T11:58:15;4.40;99.90
9482;DHT22;4779;48.062;11.672;2023-04-03T12:01:02;4.50;99.90
9482;DHT22;4779;48.062;11.672;2023-04-03T12:09:24;4.50;99.90
9482;DHT22;4779;48.062;11.672;2023-04-03T12:11:52;4.70;99.90
9482;DHT22;4779;48.062;11.672;2023-04-03T12:14:22;4.80;99.90
9482;DHT22;4779;48.062;11.672;2023-04-03T12:16:53;4.90;99.90
9482;DHT22;4779;48.062;11.672;2023-04-03T12:19:36;5.00;99.90
9482;DHT22;4779;48.062;11.672;2023-04-03T12:22:16;5.00;99.90
9482;DHT22;4779;48.062;11.672;2023-04-03T12:24:47;5.00;99.90
9482;DHT22;4779;48.062;11.672;2023-04-03T12:27:26;5.00;99.90
9482;DHT22;4779;48.062;11.672;2023-04-03T12:29:58;5.10;99.90
9482;DHT22;4779;48.062;11.672;2023-04-03T12:32:37;5.10;99.90
9482;DHT22;4779;48.062;11.672;2023-04-03T12:35:18;5.00;99.90
9482;DHT22;4779;48.062;11.672;2023-04-03T12:38:06;5.00;99.90
9482;DHT22;4779;48.062;11.672;2023-04-03T12:40:45;5.00;99.90
9482;DHT22;4779;48.062;11.672;2023-04-03T12:43:25;5.10;99.90
9482;DHT22;4779;48.062;11.672;2023-04-03T12:45:59;5.10;99.90
9482;DHT22;4779;48.062;11.672;2023-04-03T12:48:31;5.00;99.90
9482;DHT22;4779;48.062;11.672;2023-04-03T12:50:59;5.00;99.90
9482;DHT22;4779;48.062;11.672;2023-04-03T12:53:28;5.00;99.90
9482;DHT22;4779;48.062;11.672;2023-04-03T12:56:20;5.00;99.90
9482;DHT22;4779;48.062;11.672;2023-04-03T12:58:48;5.00;99.90
9482;DHT22;4779;48.062;11.672;2023-04-03T13:01:16;5.20;99.90
9482;DHT22;4779;48.062;11.672;2023-04-03T13:03:49;5.30;99.90
9482;DHT22;4779;48.062;11.672;2023-04-03T13:06:19;5.30;99.90
9482;DHT22;4779;48.062;11.672;2023-04-03T13:08:52;5.50;99.90
9482;DHT22;4779;48.062;11.672;2023-04-03T13:11:20;5.70;99.90
9482;DHT22;4779;48.062;11.672;2023-04-03T13:13:58;5.80;99.90
9482;DHT22;4779;48.062;11.672;2023-04-03T13:16:26;5.90;99.90
9482;DHT22;4779;48.062;11.672;2023-04-03T13:18:55;5.80;99.90
9482;DHT22;4779;48.062;11.672;2023-04-03T13:21:24;5.80;99.90
9482;DHT22;4779;48.062;11.672;2023-04-03T13:23:54;6.00;99.90
9482;DHT22;4779;48.062;11.672;2023-04-03T13:26:25;6.30;99.90
9482;DHT22;4779;48.062;11.672;2023-04-03T13:28:55;6.50;99.90
9482;DHT22;4779;48.062;11.672;2023-04-03T13:31:27;6.80;99.90
9482;DHT22;4779;48.062;11.672;2023-04-03T13:33:58;7.10;99.90
9482;DHT22;4779;48.062;11.672;2023-04-03T13:36:31;7.40;99.90
9482;DHT22;4779;48.062;11.672;2023-04-03T13:39:01;7.80;99.90
9482;DHT22;4779;48.062;11.672;2023-04-03T13:41:31;8.10;99.90
9482;DHT22;4779;48.062;11.672;2023-04-03T13:44:17;8.00;99.90
9482;DHT22;4779;48.062;11.672;2023-04-03T13:46:44;8.60;98.00
9482;DHT22;4779;48.062;11.672;2023-04-03T13:49:20;9.20;98.30
9482;DHT22;4779;48.062;11.672;2023-04-03T13:51:47;9.60;95.50
9482;DHT22;4779;48.062;11.672;2023-04-03T13:54:20;10.30;97.50
9482;DHT22;4779;48.062;11.672;2023-04-03T13:56:54;11.10;94.60
9482;DHT22;4779;48.062;11.672;2023-04-03T13:59:24;11.00;90.60
9482;DHT22;4779;48.062;11.672;2023-04-03T14:01:54;10.40;92.30
9482;DHT22;4779;48.062;11.672;2023-04-03T14:04:25;9.50;93.30
9482;DHT22;4779;48.062;11.672;2023-04-03T14:06:53;8.60;93.40
9482;DHT22;4779;48.062;11.672;2023-04-03T14:09:22;8.00;96.00
9482;DHT22;4779;48.062;11.672;2023-04-03T14:11:52;7.60;95.30
9482;DHT22;4779;48.062;11.672;2023-04-03T14:14:21;7.10;95.00
9482;DHT22;4779;48.062;11.672;2023-04-03T14:16:52;6.70;95.10
9482;DHT22;4779;48.062;11.672;2023-04-03T14:19:23;6.50;95.90
9482;DHT22;4779;48.062;11.672;2023-04-03T14:21:51;6.20;95.90
9482;DHT22;4779;48.062;11.672;2023-04-03T14:24:20;6.10;96.40
9482;DHT22;4779;48.062;11.672;2023-04-03T14:26:48;6.00;95.80
9482;DHT22;4779;48.062;11.672;2023-04-03T14:29:15;5.90;96.30
9482;DHT22;4779;48.062;11.672;2023-04-03T14:31:43;5.90;96.60
9482;DHT22;4779;48.062;11.672;2023-04-03T14:34:10;5.90;95.40
9482;DHT22;4779;48.062;11.672;2023-04-03T14:36:40;6.00;96.40
9482;DHT22;4779;48.062;11.672;2023-04-03T14:39:11;5.90;95.70
9482;DHT22;4779;48.062;11.672;2023-04-03T14:41:40;6.00;95.20
9482;DHT22;4779;48.062;11.672;2023-04-03T14:44:07;6.00;96.70
9482;DHT22;4779;48.062;11.672;2023-04-03T14:46:36;6.10;96.90
9482;DHT22;4779;48.062;11.672;2023-04-03T14:49:03;6.10;95.90
9482;DHT22;4779;48.062;11.672;2023-04-03T14:51:33;6.20;95.80
9482;DHT22;4779;48.062;11.672;2023-04-03T14:54:01;6.20;95.40
9482;DHT22;4779;48.062;11.672;2023-04-03T14:56:29;6.30;94.90
9482;DHT22;4779;48.062;11.672;2023-04-03T14:58:58;6.30;94.00
9482;DHT22;4779;48.062;11.672;2023-04-03T15:01:26;6.40;94.80
9482;DHT22;4779;48.062;11.672;2023-04-03T15:03:54;6.60;95.40
9482;DHT22;4779;48.062;11.672;2023-04-03T15:06:21;6.80;93.20
9482;DHT22;4779;48.062;11.672;2023-04-03T15:08:48;6.90;94.10
9482;DHT22;4779;48.062;11.672;2023-04-03T15:11:16;6.90;94.50
9482;DHT22;4779;48.062;11.672;2023-04-03T15:13:43;6.90;93.60
9482;DHT22;4779;48.062;11.672;2023-04-03T15:16:15;6.90;93.70
9482;DHT22;4779;48.062;11.672;2023-04-03T15:18:42;6.80;92.40
9482;DHT22;4779;48.062;11.672;2023-04-03T15:21:10;6.80;92.90
9482;DHT22;4779;48.062;11.672;2023-04-03T15:23:37;6.80;93.10
9482;DHT22;4779;48.062;11.672;2023-04-03T15:26:04;6.80;92.30
9482;DHT22;4779;48.062;11.672;2023-04-03T15:28:35;6.80;92.70
9482;DHT22;4779;48.062;11.672;2023-04-03T15:31:03;6.90;93.50
9482;DHT22;4779;48.062;11.672;2023-04-03T15:33:31;7.00;92.50
9482;DHT22;4779;48.062;11.672;2023-04-03T15:35:58;6.90;92.20
9482;DHT22;4779;48.062;11.672;2023-04-03T15:38:25;6.80;91.80
9482;DHT22;4779;48.062;11.672;2023-04-03T15:40:53;6.70;91.60
9482;DHT22;4779;48.062;11.672;2023-04-03T15:43:21;6.60;91.70
9482;DHT22;4779;48.062;11.672;2023-04-03T15:45:50;6.40;90.90
9482;DHT22;4779;48.062;11.672;2023-04-03T15:48:17;6.30;91.20
9482;DHT22;4779;48.062;11.672;2023-04-03T15:50:44;6.10;91.40
9482;DHT22;4779;48.062;11.672;2023-04-03T15:53:13;6.10;91.50
9482;DHT22;4779;48.062;11.672;2023-04-03T15:55:40;6.10;91.50
9482;DHT22;4779;48.062;11.672;2023-04-03T15:58:07;6.20;91.60
9482;DHT22;4779;48.062;11.672;2023-04-03T16:00:35;6.30;91.30
9482;DHT22;4779;48.062;11.672;2023-04-03T16:03:08;6.40;91.00
9482;DHT22;4779;48.062;11.672;2023-04-03T16:05:37;6.60;92.20
9482;DHT22;4779;48.062;11.672;2023-04-03T16:08:05;6.70;92.00
9482;DHT22;4779;48.062;11.672;2023-04-03T16:10:33;6.70;91.40
9482;DHT22;4779;48.062;11.672;2023-04-03T16:13:00;6.60;91.40
9482;DHT22;4779;48.062;11.672;2023-04-03T16:15:27;6.50;90.00
9482;DHT22;4779;48.062;11.672;2023-04-03T16:17:56;6.20;90.00
9482;DHT22;4779;48.062;11.672;2023-04-03T16:20:25;6.10;89.90
9482;DHT22;4779;48.062;11.672;2023-04-03T16:22:53;6.00;89.60
9482;DHT22;4779;48.062;11.672;2023-04-03T16:25:20;6.00;90.00
9482;DHT22;4779;48.062;11.672;2023-04-03T16:27:47;5.90;90.10
9482;DHT22;4779;48.062;11.672;2023-04-03T16:30:15;5.90;90.30
9482;DHT22;4779;48.062;11.672;2023-04-03T16:32:42;5.80;88.70
9482;DHT22;4779;48.062;11.672;2023-04-03T16:35:09;5.70;90.40
9482;DHT22;4779;48.062;11.672;2023-04-03T16:37:38;5.60;90.20
9482;DHT22;4779;48.062;11.672;2023-04-03T16:40:07;5.60;88.30
9482;DHT22;4779;48.062;11.672;2023-04-03T16:42:34;5.50;89.10
9482;DHT22;4779;48.062;11.672;2023-04-03T16:45:01;5.40;90.10
9482;DHT22;4779;48.062;11.672;2023-04-03T16:47:29;5.40;89.30
9482;DHT22;4779;48.062;11.672;2023-04-03T16:49:56;5.40;90.70
9482;DHT22;4779;48.062;11.672;2023-04-03T16:52:23;5.50;90.80
9482;DHT22;4779;48.062;11.672;2023-04-03T16:54:51;5.40;90.20
9482;DHT22;4779;48.062;11.672;2023-04-03T16:57:21;5.40;91.00